sensor_id;sensor_type;location;lat;lon;timestamp;P1;durP1;ratioP1;P2;durP2;ratioP2
3405;SDS011;10008;48.682;9.016;2023-05-21T00:01:39;17.80;;;11.10;;
3405;SDS011;10008;48.682;9.016;2023-05-21T00:04:06;8.40;;;7.80;;
3405;SDS011;10008;48.682;9.016;2023-05-21T00:06:35;9.03;;;8.33;;
3405;SDS011;10008;48.682;9.016;2023-05-21T00:09:01;9.07;;;8.37;;
3405;SDS011;10008;48.682;9.016;2023-05-21T00:11:27;8.10;;;7.50;;
3405;SDS011;10008;48.682;9.016;2023-05-21T00:13:53;8.73;;;8.03;;
3405;SDS011;10008;48.682;9.016;2023-05-21T00:16:20;7.90;;;7.30;;
3405;SDS011;10008;48.682;9.016;2023-05-21T00:18:46;8.20;;;7.60;;
3405;SDS011;10008;48.682;9.016;2023-05-21T00:21:14;9.10;;;8.37;;
3405;SDS011;10008;48.682;9.016;2023-05-21T00:23:41;8.00;;;7.40;;
3405;SDS011;10008;48.682;9.016;2023-05-21T00:26:08;7.67;;;7.07;;
3405;SDS011;10008;48.682;9.016;2023-05-21T00:28:33;8.00;;;7.40;;
3405;SDS011;10008;48.682;9.016;2023-05-21T00:30:59;8.13;;;7.53;;
3405;SDS011;10008;48.682;9.016;2023-05-21T00:33:25;7.57;;;6.97;;
3405;SDS011;10008;48.682;9.016;2023-05-21T00:35:53;8.37;;;7.57;;
3405;SDS011;10008;48.682;9.016;2023-05-21T00:38:19;7.57;;;6.97;;
3405;SDS011;10008;48.682;9.016;2023-05-21T00:40:46;8.37;;;7.67;;
3405;SDS011;10008;48.682;9.016;2023-05-21T00:43:12;10.47;;;9.57;;
3405;SDS011;10008;48.682;9.016;2023-05-21T00:45:39;8.60;;;7.90;;
3405;SDS011;10008;48.682;9.016;2023-05-21T00:48:07;7.30;;;6.80;;
3405;SDS011;10008;48.682;9.016;2023-05-21T00:50:32;7.40;;;6.80;;
3405;SDS011;10008;48.682;9.016;2023-05-21T00:53:00;9.20;;;8.40;;
3405;SDS011;10008;48.682;9.016;2023-05-21T00:55:26;7.57;;;6.97;;
3405;SDS011;10008;48.682;9.016;2023-05-21T00:57:51;7.00;;;6.50;;
3405;SDS011;10008;48.682;9.016;2023-05-21T01:00:17;7.10;;;6.60;;
3405;SDS011;10008;48.682;9.016;2023-05-21T01:02:44;6.80;;;6.30;;
3405;SDS011;10008;48.682;9.016;2023-05-21T01:05:10;6.90;;;6.40;;
3405;SDS011;10008;48.682;9.016;2023-05-21T01:07:37;6.50;;;6.00;;
3405;SDS011;10008;48.682;9.016;2023-05-21T01:10:06;15.30;;;10.27;;
3405;SDS011;10008;48.682;9.016;2023-05-21T01:12:34;8.97;;;8.20;;
3405;SDS011;10008;48.682;9.016;2023-05-21T01:15:02;9.90;;;9.00;;
3405;SDS011;10008;48.682;9.016;2023-05-21T01:17:29;6.50;;;6.00;;
3405;SDS011;10008;48.682;9.016;2023-05-21T01:19:58;6.50;;;6.00;;
3405;SDS011;10008;48.682;9.016;2023-05-21T01:22:25;6.50;;;6.00;;
3405;SDS011;10008;48.682;9.016;2023-05-21T01:24:56;6.10;;;5.60;;
3405;SDS011;10008;48.682;9.016;2023-05-21T01:27:22;6.97;;;6.47;;
3405;SDS011;10008;48.682;9.016;2023-05-21T01:29:48;6.43;;;5.93;;
3405;SDS011;10008;48.682;9.016;2023-05-21T01:32:32;6.70;;;6.20;;
3405;SDS011;10008;48.682;9.016;2023-05-21T01:35:12;6.20;;;5.70;;
3405;SDS011;10008;48.682;9.016;2023-05-21T01:37:44;7.10;;;6.50;;
3405;SDS011;10008;48.682;9.016;2023-05-21T01:43:02;6.80;;;6.20;;
3405;SDS011;10008;48.682;9.016;2023-05-21T01:45:31;6.10;;;5.60;;
3405;SDS011;10008;48.682;9.016;2023-05-21T01:47:58;14.33;;;11.60;;
3405;SDS011;10008;48.682;9.016;2023-05-21T01:50:24;7.03;;;6.43;;
3405;SDS011;10008;48.682;9.016;2023-05-21T01:52:52;7.40;;;6.80;;
3405;SDS011;10008;48.682;9.016;2023-05-21T01:55:19;5.80;;;5.30;;
3405;SDS011;10008;48.682;9.016;2023-05-21T01:57:54;6.00;;;5.50;;
3405;SDS011;10008;48.682;9.016;2023-05-21T02:00:20;6.40;;;5.90;;
3405;SDS011;10008;48.682;9.016;2023-05-21T02:02:47;5.40;;;5.00;;
3405;SDS011;10008;48.682;9.016;2023-05-21T02:05:13;7.13;;;6.53;;
3405;SDS011;10008;48.682;9.016;2023-05-21T02:07:39;6.23;;;5.73;;
3405;SDS011;10008;48.682;9.016;2023-05-21T02:10:05;5.53;;;5.10;;
3405;SDS011;10008;48.682;9.016;2023-05-21T02:12:32;7.00;;;6.40;;
3405;SDS011;10008;48.682;9.016;2023-05-21T02:14:59;6.23;;;5.73;;
3405;SDS011;10008;48.682;9.016;2023-05-21T02:17:24;6.67;;;6.00;;
3405;SDS011;10008;48.682;9.016;2023-05-21T02:19:51;5.40;;;5.00;;
3405;SDS011;10008;48.682;9.016;2023-05-21T02:22:17;5.90;;;5.40;;
3405;SDS011;10008;48.682;9.016;2023-05-21T02:24:42;5.70;;;5.20;;
3405;SDS011;10008;48.682;9.016;2023-05-21T02:27:08;5.30;;;4.90;;
3405;SDS011;10008;48.682;9.016;2023-05-21T02:29:38;5.50;;;5.10;;
3405;SDS011;10008;48.682;9.016;2023-05-21T02:32:04;5.90;;;5.40;;
3405;SDS011;10008;48.682;9.016;2023-05-21T02:34:30;5.70;;;5.20;;
3405;SDS011;10008;48.682;9.016;2023-05-21T02:36:57;5.70;;;5.20;;
3405;SDS011;10008;48.682;9.016;2023-05-21T02:39:23;5.90;;;5.40;;
3405;SDS011;10008;48.682;9.016;2023-05-21T02:41:49;6.87;;;6.27;;
3405;SDS011;10008;48.682;9.016;2023-05-21T02:44:15;9.10;;;8.20;;
3405;SDS011;10008;48.682;9.016;2023-05-21T02:46:43;7.87;;;7.07;;
3405;SDS011;10008;48.682;9.016;2023-05-21T02:49:09;6.00;;;5.50;;
3405;SDS011;10008;48.682;9.016;2023-05-21T02:51:34;9.23;;;8.53;;
3405;SDS011;10008;48.682;9.016;2023-05-21T02:54:00;7.97;;;6.07;;
3405;SDS011;10008;48.682;9.016;2023-05-21T02:56:26;6.00;;;5.50;;
3405;SDS011;10008;48.682;9.016;2023-05-21T02:58:52;6.77;;;6.27;;
3405;SDS011;10008;48.682;9.016;2023-05-21T03:01:18;6.70;;;6.10;;
3405;SDS011;10008;48.682;9.016;2023-05-21T03:03:44;5.40;;;5.00;;
3405;SDS011;10008;48.682;9.016;2023-05-21T03:06:10;5.70;;;5.20;;
3405;SDS011;10008;48.682;9.016;2023-05-21T03:08:36;5.40;;;5.00;;
3405;SDS011;10008;48.682;9.016;2023-05-21T03:11:02;5.30;;;4.90;;
3405;SDS011;10008;48.682;9.016;2023-05-21T03:13:28;6.17;;;5.57;;
3405;SDS011;10008;48.682;9.016;2023-05-21T03:15:54;6.30;;;5.80;;
3405;SDS011;10008;48.682;9.016;2023-05-21T03:18:21;7.13;;;5.77;;
3405;SDS011;10008;48.682;9.016;2023-05-21T03:20:47;6.63;;;6.13;;
3405;SDS011;10008;48.682;9.016;2023-05-21T03:23:13;6.40;;;5.90;;
3405;SDS011;10008;48.682;9.016;2023-05-21T03:25:40;5.80;;;5.30;;
3405;SDS011;10008;48.682;9.016;2023-05-21T03:28:06;6.37;;;5.73;;
3405;SDS011;10008;48.682;9.016;2023-05-21T03:30:43;5.60;;;5.10;;
3405;SDS011;10008;48.682;9.016;2023-05-21T03:33:30;5.70;;;5.20;;
3405;SDS011;10008;48.682;9.016;2023-05-21T03:35:56;6.20;;;5.70;;
3405;SDS011;10008;48.682;9.016;2023-05-21T03:38:23;5.40;;;5.00;;
3405;SDS011;10008;48.682;9.016;2023-05-21T03:40:49;5.90;;;5.40;;
3405;SDS011;10008;48.682;9.016;2023-05-21T03:43:15;5.10;;;4.70;;
3405;SDS011;10008;48.682;9.016;2023-05-21T03:45:41;5.07;;;4.67;;
3405;SDS011;10008;48.682;9.016;2023-05-21T03:48:25;6.00;;;4.80;;
3405;SDS011;10008;48.682;9.016;2023-05-21T03:50:50;7.50;;;5.90;;
3405;SDS011;10008;48.682;9.016;2023-05-21T03:53:16;4.60;;;4.20;;
3405;SDS011;10008;48.682;9.016;2023-05-21T03:55:43;4.67;;;4.27;;
3405;SDS011;10008;48.682;9.016;2023-05-21T03:58:09;6.30;;;5.60;;
3405;SDS011;10008;48.682;9.016;2023-05-21T04:00:38;5.63;;;5.13;;
3405;SDS011;10008;48.682;9.016;2023-05-21T04:03:04;4.50;;;4.10;;
3405;SDS011;10008;48.682;9.016;2023-05-21T04:05:33;5.07;;;4.67;;
3405;SDS011;10008;48.682;9.016;2023-05-21T04:07:59;8.00;;;6.10;;
3405;SDS011;10008;48.682;9.016;2023-05-21T04:10:25;5.07;;;4.67;;
3405;SDS011;10008;48.682;9.016;2023-05-21T04:12:51;5.73;;;4.90;;
3405;SDS011;10008;48.682;9.016;2023-05-21T04:15:17;7.83;;;4.83;;
3405;SDS011;10008;48.682;9.016;2023-05-21T04:17:43;4.80;;;4.40;;
3405;SDS011;10008;48.682;9.016;2023-05-21T04:20:11;4.87;;;4.47;;
3405;SDS011;10008;48.682;9.016;2023-05-21T04:22:38;5.30;;;4.90;;
3405;SDS011;10008;48.682;9.016;2023-05-21T04:25:04;5.30;;;4.90;;
3405;SDS011;10008;48.682;9.016;2023-05-21T04:27:34;5.67;;;5.20;;
3405;SDS011;10008;48.682;9.016;2023-05-21T04:30:01;7.33;;;6.20;;
3405;SDS011;10008;48.682;9.016;2023-05-21T04:32:29;5.83;;;5.33;;
3405;SDS011;10008;48.682;9.016;2023-05-21T04:34:56;4.90;;;4.50;;
3405;SDS011;10008;48.682;9.016;2023-05-21T04:37:21;4.97;;;4.57;;
3405;SDS011;10008;48.682;9.016;2023-05-21T04:39:50;5.10;;;4.70;;
3405;SDS011;10008;48.682;9.016;2023-05-21T04:42:17;6.53;;;6.03;;
3405;SDS011;10008;48.682;9.016;2023-05-21T04:44:43;5.23;;;4.83;;
3405;SDS011;10008;48.682;9.016;2023-05-21T04:47:09;5.70;;;5.20;;
3405;SDS011;10008;48.682;9.016;2023-05-21T04:49:36;5.20;;;4.80;;
3405;SDS011;10008;48.682;9.016;2023-05-21T04:52:02;5.13;;;4.73;;
3405;SDS011;10008;48.682;9.016;2023-05-21T04:54:28;5.97;;;5.47;;
3405;SDS011;10008;48.682;9.016;2023-05-21T04:56:54;5.90;;;5.40;;
3405;SDS011;10008;48.682;9.016;2023-05-21T04:59:20;5.70;;;5.20;;
3405;SDS011;10008;48.682;9.016;2023-05-21T05:01:47;6.00;;;5.50;;
3405;SDS011;10008;48.682;9.016;2023-05-21T05:04:12;8.20;;;7.60;;
3405;SDS011;10008;48.682;9.016;2023-05-21T05:06:38;7.47;;;6.40;;
3405;SDS011;10008;48.682;9.016;2023-05-21T05:09:04;6.23;;;5.73;;
3405;SDS011;10008;48.682;9.016;2023-05-21T05:11:30;22.60;;;8.93;;
3405;SDS011;10008;48.682;9.016;2023-05-21T05:13:56;6.10;;;5.60;;
3405;SDS011;10008;48.682;9.016;2023-05-21T05:16:22;5.80;;;5.30;;
3405;SDS011;10008;48.682;9.016;2023-05-21T05:18:51;7.83;;;5.80;;
3405;SDS011;10008;48.682;9.016;2023-05-21T05:21:17;8.67;;;7.93;;
3405;SDS011;10008;48.682;9.016;2023-05-21T05:23:42;7.50;;;6.80;;
3405;SDS011;10008;48.682;9.016;2023-05-21T05:26:12;6.20;;;5.70;;
3405;SDS011;10008;48.682;9.016;2023-05-21T05:28:38;7.57;;;6.93;;
3405;SDS011;10008;48.682;9.016;2023-05-21T05:31:04;6.10;;;5.60;;
3405;SDS011;10008;48.682;9.016;2023-05-21T05:33:31;7.03;;;6.37;;
3405;SDS011;10008;48.682;9.016;2023-05-21T05:35:57;6.37;;;5.87;;
3405;SDS011;10008;48.682;9.016;2023-05-21T05:38:22;6.83;;;6.33;;
3405;SDS011;10008;48.682;9.016;2023-05-21T05:40:48;7.03;;;6.53;;
3405;SDS011;10008;48.682;9.016;2023-05-21T05:43:14;6.50;;;6.00;;
3405;SDS011;10008;48.682;9.016;2023-05-21T05:45:41;6.93;;;6.43;;
3405;SDS011;10008;48.682;9.016;2023-05-21T05:48:11;7.03;;;6.53;;
3405;SDS011;10008;48.682;9.016;2023-05-21T05:50:37;7.00;;;6.50;;
3405;SDS011;10008;48.682;9.016;2023-05-21T05:53:02;7.23;;;6.63;;
3405;SDS011;10008;48.682;9.016;2023-05-21T05:55:28;8.90;;;8.10;;
3405;SDS011;10008;48.682;9.016;2023-05-21T05:57:54;9.97;;;9.07;;
3405;SDS011;10008;48.682;9.016;2023-05-21T06:00:20;7.03;;;6.53;;
3405;SDS011;10008;48.682;9.016;2023-05-21T06:02:48;13.07;;;10.77;;
3405;SDS011;10008;48.682;9.016;2023-05-21T06:05:14;7.27;;;6.67;;
3405;SDS011;10008;48.682;9.016;2023-05-21T06:07:40;8.70;;;7.90;;
3405;SDS011;10008;48.682;9.016;2023-05-21T06:10:06;9.10;;;8.40;;
3405;SDS011;10008;48.682;9.016;2023-05-21T06:12:32;8.43;;;7.73;;
3405;SDS011;10008;48.682;9.016;2023-05-21T06:14:59;12.20;;;11.00;;
3405;SDS011;10008;48.682;9.016;2023-05-21T06:17:26;7.73;;;7.13;;
3405;SDS011;10008;48.682;9.016;2023-05-21T06:19:52;8.40;;;7.80;;
3405;SDS011;10008;48.682;9.016;2023-05-21T06:22:18;10.20;;;9.30;;
3405;SDS011;10008;48.682;9.016;2023-05-21T06:24:44;11.67;;;10.70;;
3405;SDS011;10008;48.682;9.016;2023-05-21T06:27:10;8.80;;;8.10;;
3405;SDS011;10008;48.682;9.016;2023-05-21T06:29:36;8.60;;;8.00;;
3405;SDS011;10008;48.682;9.016;2023-05-21T06:32:02;11.47;;;10.37;;
3405;SDS011;10008;48.682;9.016;2023-05-21T06:34:28;9.43;;;8.73;;
3405;SDS011;10008;48.682;9.016;2023-05-21T06:36:54;9.17;;;8.47;;
3405;SDS011;10008;48.682;9.016;2023-05-21T06:39:19;9.23;;;8.43;;
3405;SDS011;10008;48.682;9.016;2023-05-21T06:41:46;9.73;;;9.03;;
3405;SDS011;10008;48.682;9.016;2023-05-21T06:44:37;10.17;;;9.37;;
3405;SDS011;10008;48.682;9.016;2023-05-21T06:47:12;10.10;;;9.30;;
3405;SDS011;10008;48.682;9.016;2023-05-21T06:49:38;9.60;;;8.90;;
3405;SDS011;10008;48.682;9.016;2023-05-21T06:52:03;9.90;;;9.17;;
3405;SDS011;10008;48.682;9.016;2023-05-21T06:54:29;10.30;;;9.50;;
3405;SDS011;10008;48.682;9.016;2023-05-21T06:56:55;11.37;;;10.47;;
3405;SDS011;10008;48.682;9.016;2023-05-21T06:59:21;10.83;;;10.00;;
3405;SDS011;10008;48.682;9.016;2023-05-21T07:01:47;10.13;;;9.40;;
3405;SDS011;10008;48.682;9.016;2023-05-21T07:04:12;11.83;;;10.83;;
3405;SDS011;10008;48.682;9.016;2023-05-21T07:06:40;11.40;;;10.50;;
3405;SDS011;10008;48.682;9.016;2023-05-21T07:09:06;10.37;;;9.57;;
3405;SDS011;10008;48.682;9.016;2023-05-21T07:11:34;10.67;;;9.87;;
3405;SDS011;10008;48.682;9.016;2023-05-21T07:14:01;10.00;;;9.23;;
3405;SDS011;10008;48.682;9.016;2023-05-21T07:16:30;14.97;;;12.30;;
3405;SDS011;10008;48.682;9.016;2023-05-21T07:18:56;10.63;;;9.83;;
3405;SDS011;10008;48.682;9.016;2023-05-21T07:21:22;11.40;;;10.50;;
3405;SDS011;10008;48.682;9.016;2023-05-21T07:23:50;11.13;;;10.23;;
3405;SDS011;10008;48.682;9.016;2023-05-21T07:26:16;13.53;;;12.23;;
3405;SDS011;10008;48.682;9.016;2023-05-21T07:28:42;10.50;;;9.70;;
3405;SDS011;10008;48.682;9.016;2023-05-21T07:31:09;11.00;;;10.10;;
3405;SDS011;10008;48.682;9.016;2023-05-21T07:33:40;12.23;;;11.17;;
3405;SDS011;10008;48.682;9.016;2023-05-21T07:36:08;12.07;;;11.13;;
3405;SDS011;10008;48.682;9.016;2023-05-21T07:38:33;13.27;;;12.07;;
3405;SDS011;10008;48.682;9.016;2023-05-21T07:40:59;12.40;;;11.40;;
3405;SDS011;10008;48.682;9.016;2023-05-21T07:43:25;14.00;;;12.87;;
3405;SDS011;10008;48.682;9.016;2023-05-21T07:45:51;13.80;;;12.70;;
3405;SDS011;10008;48.682;9.016;2023-05-21T07:48:17;13.20;;;12.10;;
3405;SDS011;10008;48.682;9.016;2023-05-21T07:50:51;12.77;;;11.77;;
3405;SDS011;10008;48.682;9.016;2023-05-21T07:53:18;12.40;;;11.40;;
3405;SDS011;10008;48.682;9.016;2023-05-21T07:55:45;11.80;;;10.90;;
3405;SDS011;10008;48.682;9.016;2023-05-21T07:58:18;12.40;;;11.40;;
3405;SDS011;10008;48.682;9.016;2023-05-21T08:00:44;12.60;;;11.60;;
3405;SDS011;10008;48.682;9.016;2023-05-21T08:03:15;12.00;;;11.10;;
3405;SDS011;10008;48.682;9.016;2023-05-21T08:05:45;13.63;;;12.53;;
3405;SDS011;10008;48.682;9.016;2023-05-21T08:08:18;13.07;;;12.07;;
3405;SDS011;10008;48.682;9.016;2023-05-21T08:10:47;12.93;;;11.93;;
3405;SDS011;10008;48.682;9.016;2023-05-21T08:13:14;12.60;;;11.60;;
3405;SDS011;10008;48.682;9.016;2023-05-21T08:15:40;12.60;;;11.60;;
3405;SDS011;10008;48.682;9.016;2023-05-21T08:18:07;13.83;;;12.70;;
3405;SDS011;10008;48.682;9.016;2023-05-21T08:20:33;13.27;;;12.20;;
3405;SDS011;10008;48.682;9.016;2023-05-21T08:23:00;13.30;;;12.20;;
3405;SDS011;10008;48.682;9.016;2023-05-21T08:25:27;13.40;;;12.37;;
3405;SDS011;10008;48.682;9.016;2023-05-21T08:27:54;13.30;;;12.30;;
3405;SDS011;10008;48.682;9.016;2023-05-21T08:30:20;18.13;;;16.43;;
3405;SDS011;10008;48.682;9.016;2023-05-21T08:32:47;14.63;;;13.43;;
3405;SDS011;10008;48.682;9.016;2023-05-21T08:35:16;14.23;;;13.13;;
3405;SDS011;10008;48.682;9.016;2023-05-21T08:38:04;14.97;;;13.77;;
3405;SDS011;10008;48.682;9.016;2023-05-21T08:40:40;13.63;;;12.50;;
3405;SDS011;10008;48.682;9.016;2023-05-21T08:43:05;14.27;;;13.17;;
3405;SDS011;10008;48.682;9.016;2023-05-21T08:45:40;13.93;;;12.83;;
3405;SDS011;10008;48.682;9.016;2023-05-21T08:48:09;13.57;;;12.50;;
3405;SDS011;10008;48.682;9.016;2023-05-21T08:50:39;13.30;;;12.30;;
3405;SDS011;10008;48.682;9.016;2023-05-21T08:53:13;13.00;;;12.00;;
3405;SDS011;10008;48.682;9.016;2023-05-21T08:55:40;14.10;;;13.00;;
3405;SDS011;10008;48.682;9.016;2023-05-21T08:58:07;13.10;;;12.10;;
3405;SDS011;10008;48.682;9.016;2023-05-21T09:00:34;13.70;;;12.50;;
3405;SDS011;10008;48.682;9.016;2023-05-21T09:03:00;14.00;;;12.90;;
3405;SDS011;10008;48.682;9.016;2023-05-21T09:05:32;13.83;;;12.73;;
3405;SDS011;10008;48.682;9.016;2023-05-21T09:08:04;15.60;;;14.27;;
3405;SDS011;10008;48.682;9.016;2023-05-21T09:10:54;12.90;;;11.90;;
3405;SDS011;10008;48.682;9.016;2023-05-21T09:13:24;13.60;;;12.50;;
3405;SDS011;10008;48.682;9.016;2023-05-21T09:15:51;13.17;;;12.17;;
3405;SDS011;10008;48.682;9.016;2023-05-21T09:18:18;14.40;;;13.30;;
3405;SDS011;10008;48.682;9.016;2023-05-21T09:20:54;12.90;;;11.90;;
3405;SDS011;10008;48.682;9.016;2023-05-21T09:23:21;14.10;;;12.93;;
3405;SDS011;10008;48.682;9.016;2023-05-21T09:25:48;13.53;;;12.50;;
3405;SDS011;10008;48.682;9.016;2023-05-21T09:28:24;13.47;;;12.40;;
3405;SDS011;10008;48.682;9.016;2023-05-21T09:30:51;13.13;;;12.13;;
3405;SDS011;10008;48.682;9.016;2023-05-21T09:33:24;13.73;;;12.63;;
3405;SDS011;10008;48.682;9.016;2023-05-21T09:35:54;14.07;;;12.93;;
3405;SDS011;10008;48.682;9.016;2023-05-21T09:38:29;15.60;;;14.07;;
3405;SDS011;10008;48.682;9.016;2023-05-21T09:40:58;12.93;;;11.93;;
3405;SDS011;10008;48.682;9.016;2023-05-21T09:43:29;13.77;;;12.67;;
3405;SDS011;10008;48.682;9.016;2023-05-21T09:45:56;13.83;;;12.63;;
3405;SDS011;10008;48.682;9.016;2023-05-21T09:48:38;13.30;;;12.20;;
3405;SDS011;10008;48.682;9.016;2023-05-21T09:51:18;13.90;;;12.70;;
3405;SDS011;10008;48.682;9.016;2023-05-21T09:53:49;13.67;;;12.57;;
3405;SDS011;10008;48.682;9.016;2023-05-21T09:56:25;13.57;;;12.47;;
3405;SDS011;10008;48.682;9.016;2023-05-21T09:58:59;13.37;;;12.30;;
3405;SDS011;10008;48.682;9.016;2023-05-21T10:01:29;13.93;;;12.73;;
3405;SDS011;10008;48.682;9.016;2023-05-21T10:03:57;13.50;;;12.40;;
3405;SDS011;10008;48.682;9.016;2023-05-21T10:06:25;13.27;;;12.17;;
3405;SDS011;10008;48.682;9.016;2023-05-21T10:08:53;14.77;;;13.57;;
3405;SDS011;10008;48.682;9.016;2023-05-21T10:11:24;13.10;;;12.10;;
3405;SDS011;10008;48.682;9.016;2023-05-21T10:13:59;13.53;;;12.43;;
3405;SDS011;10008;48.682;9.016;2023-05-21T10:16:28;14.47;;;13.27;;
3405;SDS011;10008;48.682;9.016;2023-05-21T10:18:56;12.90;;;11.90;;
3405;SDS011;10008;48.682;9.016;2023-05-21T10:21:23;21.60;;;12.60;;
3405;SDS011;10008;48.682;9.016;2023-05-21T10:23:50;13.20;;;12.10;;
3405;SDS011;10008;48.682;9.016;2023-05-21T10:26:18;14.27;;;12.93;;
3405;SDS011;10008;48.682;9.016;2023-05-21T10:28:45;12.83;;;11.73;;
3405;SDS011;10008;48.682;9.016;2023-05-21T10:31:12;13.30;;;12.10;;
3405;SDS011;10008;48.682;9.016;2023-05-21T10:33:39;14.43;;;13.07;;
3405;SDS011;10008;48.682;9.016;2023-05-21T10:36:06;13.93;;;12.83;;
3405;SDS011;10008;48.682;9.016;2023-05-21T10:38:32;13.77;;;12.67;;
3405;SDS011;10008;48.682;9.016;2023-05-21T10:40:59;13.30;;;12.30;;
3405;SDS011;10008;48.682;9.016;2023-05-21T10:43:35;13.00;;;12.00;;
3405;SDS011;10008;48.682;9.016;2023-05-21T10:46:31;13.27;;;12.17;;
3405;SDS011;10008;48.682;9.016;2023-05-21T10:49:06;13.00;;;12.00;;
3405;SDS011;10008;48.682;9.016;2023-05-21T10:52:16;14.40;;;13.20;;
3405;SDS011;10008;48.682;9.016;2023-05-21T10:54:59;13.10;;;12.00;;
3405;SDS011;10008;48.682;9.016;2023-05-21T11:00:30;13.60;;;12.50;;
3405;SDS011;10008;48.682;9.016;2023-05-21T11:02:57;12.40;;;11.40;;
3405;SDS011;10008;48.682;9.016;2023-05-21T11:08:22;12.60;;;11.60;;
3405;SDS011;10008;48.682;9.016;2023-05-21T11:10:57;13.77;;;12.67;;
3405;SDS011;10008;48.682;9.016;2023-05-21T11:13:24;13.30;;;12.20;;
3405;SDS011;10008;48.682;9.016;2023-05-21T11:21:03;12.98;;;11.98;;
3405;SDS011;10008;48.682;9.016;2023-05-21T11:23:47;13.20;;;12.10;;
3405;SDS011;10008;48.682;9.016;2023-05-21T11:26:16;13.68;;;12.57;;
3405;SDS011;10008;48.682;9.016;2023-05-21T11:28:43;12.50;;;11.50;;
3405;SDS011;10008;48.682;9.016;2023-05-21T11:39:41;13.30;;;12.23;;
3405;SDS011;10008;48.682;9.016;2023-05-21T11:42:08;13.00;;;12.00;;
3405;SDS011;10008;48.682;9.016;2023-05-21T11:44:40;12.83;;;11.83;;
3405;SDS011;10008;48.682;9.016;2023-05-21T11:47:09;12.40;;;11.40;;
3405;SDS011;10008;48.682;9.016;2023-05-21T11:49:37;12.50;;;11.50;;
3405;SDS011;10008;48.682;9.016;2023-05-21T11:52:03;12.40;;;11.40;;
3405;SDS011;10008;48.682;9.016;2023-05-21T11:54:31;13.20;;;12.20;;
3405;SDS011;10008;48.682;9.016;2023-05-21T11:57:05;13.23;;;12.13;;
3405;SDS011;10008;48.682;9.016;2023-05-21T11:59:31;12.73;;;11.73;;
3405;SDS011;10008;48.682;9.016;2023-05-21T12:01:58;13.37;;;12.37;;
3405;SDS011;10008;48.682;9.016;2023-05-21T12:04:30;13.63;;;12.53;;
3405;SDS011;10008;48.682;9.016;2023-05-21T12:07:06;12.60;;;11.60;;
3405;SDS011;10008;48.682;9.016;2023-05-21T12:09:40;12.50;;;11.50;;
3405;SDS011;10008;48.682;9.016;2023-05-21T12:12:07;12.80;;;11.80;;
3405;SDS011;10008;48.682;9.016;2023-05-21T12:14:33;12.20;;;11.20;;
3405;SDS011;10008;48.682;9.016;2023-05-21T12:17:02;12.57;;;11.37;;
3405;SDS011;10008;48.682;9.016;2023-05-21T12:19:32;12.00;;;11.00;;
3405;SDS011;10008;48.682;9.016;2023-05-21T12:22:02;16.00;;;13.20;;
3405;SDS011;10008;48.682;9.016;2023-05-21T12:24:29;12.77;;;11.67;;
3405;SDS011;10008;48.682;9.016;2023-05-21T12:26:56;12.27;;;11.20;;
3405;SDS011;10008;48.682;9.016;2023-05-21T12:29:32;13.03;;;11.83;;
3405;SDS011;10008;48.682;9.016;2023-05-21T12:32:00;12.33;;;11.23;;
3405;SDS011;10008;48.682;9.016;2023-05-21T12:34:36;14.40;;;13.30;;
3405;SDS011;10008;48.682;9.016;2023-05-21T12:37:03;13.20;;;12.20;;
3405;SDS011;10008;48.682;9.016;2023-05-21T12:39:38;14.73;;;13.63;;
3405;SDS011;10008;48.682;9.016;2023-05-21T12:42:05;13.53;;;12.43;;
3405;SDS011;10008;48.682;9.016;2023-05-21T12:44:31;13.70;;;12.60;;
3405;SDS011;10008;48.682;9.016;2023-05-21T12:46:57;13.60;;;12.60;;
3405;SDS011;10008;48.682;9.016;2023-05-21T12:49:33;14.83;;;13.63;;
3405;SDS011;10008;48.682;9.016;2023-05-21T12:52:09;13.10;;;12.10;;
3405;SDS011;10008;48.682;9.016;2023-05-21T12:54:37;13.60;;;12.60;;
3405;SDS011;10008;48.682;9.016;2023-05-21T12:57:23;13.10;;;12.10;;
3405;SDS011;10008;48.682;9.016;2023-05-21T13:02:24;14.43;;;13.33;;
3405;SDS011;10008;48.682;9.016;2023-05-21T13:04:53;12.70;;;11.70;;
3405;SDS011;10008;48.682;9.016;2023-05-21T13:07:24;13.33;;;12.23;;
3405;SDS011;10008;48.682;9.016;2023-05-21T13:09:51;13.10;;;12.10;;
3405;SDS011;10008;48.682;9.016;2023-05-21T13:12:21;12.80;;;11.80;;
3405;SDS011;10008;48.682;9.016;2023-05-21T13:14:51;13.50;;;12.40;;
3405;SDS011;10008;48.682;9.016;2023-05-21T13:17:18;12.93;;;11.93;;
3405;SDS011;10008;48.682;9.016;2023-05-21T13:20:06;13.20;;;12.20;;
3405;SDS011;10008;48.682;9.016;2023-05-21T13:22:31;12.63;;;11.63;;
3405;SDS011;10008;48.682;9.016;2023-05-21T13:24:58;12.87;;;11.87;;
3405;SDS011;10008;48.682;9.016;2023-05-21T13:27:24;14.97;;;13.67;;
3405;SDS011;10008;48.682;9.016;2023-05-21T13:29:50;13.27;;;12.27;;
3405;SDS011;10008;48.682;9.016;2023-05-21T13:32:16;14.70;;;13.33;;
3405;SDS011;10008;48.682;9.016;2023-05-21T13:34:43;14.50;;;13.40;;
3405;SDS011;10008;48.682;9.016;2023-05-21T13:37:08;13.30;;;12.30;;
3405;SDS011;10008;48.682;9.016;2023-05-21T13:39:34;14.90;;;13.60;;
3405;SDS011;10008;48.682;9.016;2023-05-21T13:42:00;12.87;;;11.87;;
3405;SDS011;10008;48.682;9.016;2023-05-21T13:44:26;14.10;;;12.97;;
3405;SDS011;10008;48.682;9.016;2023-05-21T13:46:51;12.80;;;11.80;;
3405;SDS011;10008;48.682;9.016;2023-05-21T13:49:17;13.10;;;12.10;;
3405;SDS011;10008;48.682;9.016;2023-05-21T13:51:43;12.87;;;11.87;;
3405;SDS011;10008;48.682;9.016;2023-05-21T13:54:09;12.47;;;11.47;;
3405;SDS011;10008;48.682;9.016;2023-05-21T13:56:34;12.60;;;11.60;;
3405;SDS011;10008;48.682;9.016;2023-05-21T13:59:00;14.40;;;12.07;;
3405;SDS011;10008;48.682;9.016;2023-05-21T14:01:26;12.50;;;11.50;;
3405;SDS011;10008;48.682;9.016;2023-05-21T14:03:52;12.70;;;11.70;;
3405;SDS011;10008;48.682;9.016;2023-05-21T14:06:17;14.07;;;12.93;;
3405;SDS011;10008;48.682;9.016;2023-05-21T14:08:43;12.70;;;11.60;;
3405;SDS011;10008;48.682;9.016;2023-05-21T14:11:09;12.80;;;11.80;;
3405;SDS011;10008;48.682;9.016;2023-05-21T14:13:34;12.53;;;11.53;;
3405;SDS011;10008;48.682;9.016;2023-05-21T14:16:00;12.73;;;11.73;;
3405;SDS011;10008;48.682;9.016;2023-05-21T14:18:26;12.97;;;11.97;;
3405;SDS011;10008;48.682;9.016;2023-05-21T14:20:52;12.87;;;11.87;;
3405;SDS011;10008;48.682;9.016;2023-05-21T14:23:18;12.83;;;11.83;;
3405;SDS011;10008;48.682;9.016;2023-05-21T14:25:43;12.30;;;11.30;;
3405;SDS011;10008;48.682;9.016;2023-05-21T14:28:09;12.77;;;11.77;;
3405;SDS011;10008;48.682;9.016;2023-05-21T14:30:35;12.50;;;11.50;;
3405;SDS011;10008;48.682;9.016;2023-05-21T14:33:01;12.50;;;11.50;;
3405;SDS011;10008;48.682;9.016;2023-05-21T14:35:26;12.20;;;11.30;;
3405;SDS011;10008;48.682;9.016;2023-05-21T14:37:52;12.50;;;11.50;;
3405;SDS011;10008;48.682;9.016;2023-05-21T14:40:18;12.90;;;11.90;;
3405;SDS011;10008;48.682;9.016;2023-05-21T14:42:44;16.20;;;15.00;;
3405;SDS011;10008;48.682;9.016;2023-05-21T14:45:10;13.23;;;12.23;;
3405;SDS011;10008;48.682;9.016;2023-05-21T14:47:36;12.20;;;11.30;;
3405;SDS011;10008;48.682;9.016;2023-05-21T14:50:01;12.20;;;11.20;;
3405;SDS011;10008;48.682;9.016;2023-05-21T14:52:27;12.70;;;11.70;;
3405;SDS011;10008;48.682;9.016;2023-05-21T14:54:53;12.13;;;11.17;;
3405;SDS011;10008;48.682;9.016;2023-05-21T14:57:18;12.43;;;11.43;;
3405;SDS011;10008;48.682;9.016;2023-05-21T14:59:45;12.50;;;11.50;;
3405;SDS011;10008;48.682;9.016;2023-05-21T15:02:11;12.53;;;11.53;;
3405;SDS011;10008;48.682;9.016;2023-05-21T15:04:37;13.53;;;12.43;;
3405;SDS011;10008;48.682;9.016;2023-05-21T15:07:03;12.57;;;11.60;;
3405;SDS011;10008;48.682;9.016;2023-05-21T15:09:28;12.73;;;11.73;;
3405;SDS011;10008;48.682;9.016;2023-05-21T15:11:54;13.23;;;12.23;;
3405;SDS011;10008;48.682;9.016;2023-05-21T15:14:20;12.70;;;11.70;;
3405;SDS011;10008;48.682;9.016;2023-05-21T15:16:45;15.80;;;14.33;;